createdAt,value
2019-04-06T00:00:42.011Z,4.88
2019-04-06T00:03:13.685Z,4.90
2019-04-06T00:05:45.487Z,4.75
2019-04-06T00:08:17.559Z,4.82
2019-04-06T00:10:48.988Z,4.74
2019-04-06T00:13:21.772Z,4.65
2019-04-06T00:15:53.091Z,4.67
2019-04-06T00:18:24.514Z,4.54
2019-04-06T00:20:55.943Z,4.52
2019-04-06T00:23:28.715Z,4.57
2019-04-06T00:26:00.986Z,4.58
2019-04-06T00:28:32.999Z,4.65
2019-04-06T00:31:12.981Z,4.62
2019-04-06T00:33:44.613Z,4.56
2019-04-06T00:36:16.370Z,4.57
2019-04-06T00:38:50.087Z,4.56
2019-04-06T00:41:22.035Z,4.59
2019-04-06T00:43:53.790Z,4.65
2019-04-06T00:46:26.432Z,4.66
2019-04-06T00:48:57.966Z,4.62
2019-04-06T00:51:29.417Z,4.64
2019-04-06T00:54:00.888Z,4.67
2019-04-06T00:56:33.253Z,4.72
2019-04-06T00:59:05.620Z,4.73
2019-04-06T01:01:37.732Z,4.80
2019-04-06T01:04:09.564Z,4.79
2019-04-06T01:06:40.942Z,4.82
2019-04-06T01:09:12.401Z,4.77
2019-04-06T01:11:44.019Z,4.78
2019-04-06T01:14:15.485Z,4.96
2019-04-06T01:16:46.972Z,4.90
2019-04-06T01:19:18.353Z,4.87
2019-04-06T01:21:50.393Z,4.99
2019-04-06T01:24:22.588Z,4.85
2019-04-06T01:26:54.149Z,4.83
2019-04-06T01:29:25.986Z,4.86
2019-04-06T01:31:58.592Z,4.81
2019-04-06T01:34:31.383Z,4.82
2019-04-06T01:37:03.324Z,4.81
2019-04-06T01:39:37.191Z,4.75
2019-04-06T01:42:09.240Z,4.72
2019-04-06T01:44:41.803Z,4.75
2019-04-06T01:47:13.203Z,4.66
2019-04-06T01:49:45.210Z,4.63
2019-04-06T01:52:16.655Z,4.51
2019-04-06T01:54:48.974Z,4.51
2019-04-06T01:57:21.496Z,4.51
2019-04-06T01:59:53.818Z,4.54
2019-04-06T02:02:34.645Z,4.46
2019-04-06T02:05:07.058Z,4.44
2019-04-06T02:07:40.273Z,4.41
2019-04-06T02:10:12.334Z,4.36
2019-04-06T02:16:20.088Z,4.37
2019-04-06T02:18:52.101Z,4.24
2019-04-06T02:21:24.253Z,4.29
2019-04-06T02:23:56.062Z,4.20
2019-04-06T02:26:30.567Z,4.13
2019-04-06T02:29:01.611Z,4.09
2019-04-06T02:32:04.183Z,4.14
2019-04-06T02:35:09.955Z,4.01
2019-04-06T02:37:50.325Z,3.97
2019-04-06T02:40:44.460Z,3.95
2019-04-06T02:43:25.031Z,3.86
2019-04-06T02:45:56.872Z,3.85
2019-04-06T02:48:28.376Z,3.88
2019-04-06T02:50:59.931Z,3.84
2019-04-06T02:53:31.345Z,3.84
2019-04-06T02:56:03.170Z,3.83
2019-04-06T02:58:35.750Z,3.63
2019-04-06T03:01:07.728Z,3.63
2019-04-06T03:03:39.466Z,3.70
2019-04-06T03:06:11.096Z,3.77
2019-04-06T03:08:43.297Z,3.78
2019-04-06T03:11:14.769Z,3.78
2019-04-06T03:13:46.894Z,3.77
2019-04-06T03:16:18.942Z,3.78
2019-04-06T03:18:50.325Z,3.77
2019-04-06T03:21:22.207Z,3.76
2019-04-06T03:23:53.894Z,3.72
2019-04-06T03:26:25.375Z,3.75
2019-04-06T03:28:59.534Z,3.70
2019-04-06T03:31:31.460Z,3.71
2019-04-06T03:34:03.624Z,3.71
2019-04-06T03:36:35.646Z,3.72
2019-04-06T03:39:08.513Z,3.72
2019-04-06T03:41:41.437Z,3.73
2019-04-06T03:44:13.221Z,3.73
2019-04-06T03:46:45.538Z,3.67
2019-04-06T03:49:17.288Z,3.71
2019-04-06T03:51:49.354Z,3.66
2019-04-06T03:54:21.051Z,3.70
2019-04-06T03:56:52.832Z,3.69
2019-04-06T03:59:24.172Z,3.63
2019-04-06T04:01:55.426Z,3.68
2019-04-06T04:04:26.748Z,3.72
2019-04-06T04:06:58.228Z,3.72
2019-04-06T04:09:29.584Z,3.72
2019-04-06T04:12:02.222Z,3.72
2019-04-06T04:14:34.311Z,3.67
2019-04-06T04:17:05.761Z,3.57
2019-04-06T04:19:37.712Z,3.58
2019-04-06T04:22:09.500Z,3.57
2019-04-06T04:24:41.196Z,3.55
2019-04-06T04:27:12.447Z,3.55
2019-04-06T04:29:44.241Z,3.44
2019-04-06T04:32:15.624Z,3.41
2019-04-06T04:34:47.691Z,3.44
2019-04-06T04:37:19.429Z,3.44
2019-04-06T04:39:50.746Z,3.37
2019-04-06T04:42:22.009Z,3.34
2019-04-06T04:44:53.692Z,3.28
2019-04-06T04:47:25.494Z,3.19
2019-04-06T04:49:56.754Z,3.22
2019-04-06T04:52:28.186Z,3.33
2019-04-06T04:55:00.325Z,3.36
2019-04-06T04:57:40.111Z,3.24
2019-04-06T05:00:05.675Z,3.14
2019-04-06T05:02:36.988Z,3.17
2019-04-06T05:05:09.676Z,3.16
2019-04-06T05:07:41.591Z,3.15
2019-04-06T05:10:13.349Z,3.18
2019-04-06T05:12:45.012Z,3.15
2019-04-06T05:15:23.221Z,3.16
2019-04-06T05:17:55.301Z,3.13
2019-04-06T05:20:26.943Z,3.04
2019-04-06T05:22:58.695Z,3.10
2019-04-06T05:25:30.023Z,3.16
2019-04-06T05:28:01.758Z,3.20
2019-04-06T05:30:33.439Z,3.23
2019-04-06T05:33:05.100Z,3.27
2019-04-06T05:35:36.851Z,3.29
2019-04-06T05:38:09.377Z,3.26
2019-04-06T05:40:40.692Z,3.31
2019-04-06T05:43:12.449Z,3.34
2019-04-06T05:45:44.542Z,3.43
2019-04-06T05:48:16.354Z,3.47
2019-04-06T05:50:47.626Z,3.44
2019-04-06T05:53:20.694Z,3.48
2019-04-06T05:55:52.481Z,3.56
2019-04-06T05:58:23.882Z,3.59
2019-04-06T06:00:55.530Z,3.64
2019-04-06T06:03:27.875Z,3.71
2019-04-06T06:05:59.596Z,3.83
2019-04-06T06:08:31.278Z,3.95
2019-04-06T06:11:02.844Z,4.00
2019-04-06T06:13:34.228Z,4.00
2019-04-06T06:16:06.116Z,4.11
2019-04-06T06:18:38.073Z,4.27
2019-04-06T06:21:09.352Z,4.32
2019-04-06T06:23:41.591Z,4.39
2019-04-06T06:26:12.903Z,4.50
2019-04-06T06:28:44.663Z,4.50
2019-04-06T06:31:16.188Z,4.69
2019-04-06T06:33:47.728Z,4.73
2019-04-06T06:36:19.175Z,4.87
2019-04-06T06:38:50.526Z,5.00
2019-04-06T06:41:22.008Z,5.07
2019-04-06T06:43:53.490Z,5.13
2019-04-06T06:46:25.061Z,5.26
2019-04-06T06:48:57.322Z,5.32
2019-04-06T06:51:29.192Z,5.43
2019-04-06T06:54:00.733Z,5.49
2019-04-06T06:56:32.179Z,5.58
2019-04-06T06:59:03.948Z,5.66
2019-04-06T07:01:35.356Z,5.70
2019-04-06T07:04:06.648Z,5.78
2019-04-06T07:06:37.916Z,5.90
2019-04-06T07:09:10.114Z,6.05
2019-04-06T07:11:41.404Z,6.20
2019-04-06T07:14:12.775Z,6.33
2019-04-06T07:16:44.737Z,6.40
2019-04-06T07:19:16.357Z,6.50
2019-04-06T07:21:48.999Z,6.56
2019-04-06T07:24:20.393Z,6.64
2019-04-06T07:26:51.663Z,6.71
2019-04-06T07:29:23.078Z,6.84
2019-04-06T07:31:54.415Z,6.86
2019-04-06T07:34:25.804Z,6.96
2019-04-06T07:36:57.364Z,7.00
2019-04-06T07:39:29.092Z,7.09
2019-04-06T07:42:00.391Z,7.29
2019-04-06T07:44:32.147Z,7.30
2019-04-06T07:47:03.417Z,7.29
2019-04-06T07:49:35.679Z,7.36
2019-04-06T07:52:06.917Z,7.42
2019-04-06T07:54:39.258Z,7.60
2019-04-06T07:57:11.390Z,7.61
2019-04-06T07:59:43.478Z,7.67
2019-04-06T08:02:15.233Z,7.82
2019-04-06T08:04:46.655Z,7.98
2019-04-06T08:07:18.488Z,8.07
2019-04-06T08:09:50.309Z,8.18
2019-04-06T08:12:21.668Z,8.22
2019-04-06T08:14:53.328Z,8.37
2019-04-06T08:17:24.684Z,8.47
2019-04-06T08:19:56.530Z,8.60
2019-04-06T08:22:27.861Z,8.62
2019-04-06T08:24:59.195Z,8.82
2019-04-06T08:27:30.888Z,8.77
2019-04-06T08:30:03.515Z,8.98
2019-04-06T08:32:34.863Z,9.15
2019-04-06T08:35:07.043Z,9.38
2019-04-06T08:37:38.404Z,9.28
2019-04-06T08:40:09.994Z,9.49
2019-04-06T08:42:41.663Z,9.58
2019-04-06T08:45:14.587Z,9.82
2019-04-06T08:47:46.033Z,10.17
2019-04-06T08:50:18.060Z,10.24
2019-04-06T08:52:49.431Z,10.28
2019-04-06T08:55:20.781Z,10.14
2019-04-06T08:57:52.536Z,10.41
2019-04-06T09:00:24.494Z,10.87
2019-04-06T09:02:56.935Z,11.09
2019-04-06T09:05:28.656Z,11.17
2019-04-06T09:08:00.332Z,11.36
2019-04-06T09:10:33.174Z,11.90
2019-04-06T09:13:04.430Z,11.68
2019-04-06T09:15:36.026Z,12.39
2019-04-06T09:18:07.474Z,12.89
2019-04-06T09:20:39.560Z,13.26
2019-04-06T09:23:11.521Z,13.73
2019-04-06T09:25:43.025Z,13.62
2019-04-06T09:28:14.448Z,14.10
2019-04-06T09:30:46.771Z,14.31
2019-04-06T09:33:19.225Z,15.01
2019-04-06T09:35:51.151Z,14.93
2019-04-06T09:38:24.532Z,14.94
2019-04-06T09:40:56.672Z,15.47
2019-04-06T09:43:28.738Z,15.49
2019-04-06T09:46:16.796Z,15.94
2019-04-06T09:49:10.429Z,15.43
2019-04-06T09:52:09.615Z,15.50
2019-04-06T09:54:55.485Z,16.30
2019-04-06T09:58:01.505Z,15.94
2019-04-06T10:00:54.717Z,17.30
2019-04-06T10:03:54.750Z,17.65
2019-04-06T10:06:44.908Z,17.63
2019-04-06T10:09:34.216Z,18.20
2019-04-06T10:12:24.630Z,17.34
2019-04-06T10:15:16.118Z,18.19
2019-04-06T10:18:15.785Z,17.64
2019-04-06T10:20:56.637Z,18.39
2019-04-06T10:23:49.953Z,18.75
2019-04-06T10:26:34.461Z,20.51
2019-04-06T10:29:28.298Z,20.23
2019-04-06T10:32:27.311Z,19.15
2019-04-06T10:35:35.812Z,19.30
2019-04-06T10:38:38.804Z,19.90
2019-04-06T10:41:35.231Z,20.86
2019-04-06T10:44:37.694Z,20.38
2019-04-06T10:47:33.621Z,20.41
2019-04-06T10:50:33.674Z,20.63
2019-04-06T10:53:27.115Z,21.02
2019-04-06T10:56:05.760Z,21.55
2019-04-06T10:59:03.692Z,20.33
2019-04-06T11:01:57.051Z,20.90
2019-04-06T11:04:36.026Z,20.81
2019-04-06T11:07:26.972Z,21.13
2019-04-06T11:10:26.450Z,21.79
2019-04-06T11:13:15.850Z,21.21
2019-04-06T11:16:25.274Z,22.33
2019-04-06T11:19:10.576Z,21.87
2019-04-06T11:22:00.342Z,22.50
2019-04-06T11:24:57.796Z,23.10
2019-04-06T11:27:51.147Z,22.90
2019-04-06T11:30:44.141Z,21.92
2019-04-06T11:33:34.903Z,22.66
2019-04-06T11:36:25.549Z,23.28
2019-04-06T11:39:17.483Z,22.81
2019-04-06T11:42:14.260Z,23.53
2019-04-06T11:45:13.491Z,24.53
2019-04-06T11:48:10.017Z,22.69
2019-04-06T11:50:56.704Z,22.88
2019-04-06T11:53:37.422Z,23.02
2019-04-06T11:56:26.119Z,23.50
2019-04-06T11:59:24.530Z,24.73
2019-04-06T12:02:17.744Z,25.11
2019-04-06T12:05:10.993Z,26.55
2019-04-06T12:07:55.651Z,25.02
2019-04-06T12:10:48.443Z,25.88
2019-04-06T12:13:36.989Z,24.51
2019-04-06T12:16:26.226Z,23.92
2019-04-06T12:19:31.761Z,24.33
2019-04-06T12:22:28.428Z,24.13
2019-04-06T12:25:17.430Z,24.99
2019-04-06T12:28:11.202Z,24.84
2019-04-06T12:31:07.750Z,25.24
2019-04-06T12:33:58.755Z,26.14
2019-04-06T12:36:58.009Z,23.78
2019-04-06T12:39:53.036Z,24.17
2019-04-06T12:42:40.902Z,24.65
2019-04-06T12:45:31.592Z,24.73
2019-04-06T12:48:32.629Z,24.55
2019-04-06T12:51:22.988Z,24.39
2019-04-06T12:54:01.129Z,23.92
2019-04-06T12:56:52.141Z,24.25
2019-04-06T12:59:49.028Z,23.12
2019-04-06T13:02:30.486Z,23.57
2019-04-06T13:05:35.793Z,24.17
2019-04-06T13:08:29.344Z,24.23
2019-04-06T13:11:16.125Z,23.72
2019-04-06T13:14:04.231Z,24.25
2019-04-06T13:17:06.825Z,24.48
2019-04-06T13:20:04.605Z,24.34
2019-04-06T13:23:13.164Z,24.98
2019-04-06T13:26:07.502Z,24.44
2019-04-06T13:29:04.650Z,24.63
2019-04-06T13:31:56.300Z,24.79
2019-04-06T13:34:56.115Z,25.34
2019-04-06T13:37:45.889Z,25.23
2019-04-06T13:40:33.899Z,24.06
2019-04-06T13:43:17.744Z,25.00
2019-04-06T13:46:16.949Z,24.48
2019-04-06T13:49:07.951Z,24.24
2019-04-06T13:51:48.020Z,24.65
2019-04-06T13:54:36.942Z,24.45
2019-04-06T13:57:23.239Z,25.38
2019-04-06T14:00:01.969Z,25.02
2019-04-06T14:02:39.401Z,25.05
2019-04-06T14:05:27.328Z,24.40
2019-04-06T14:08:20.338Z,24.91
2019-04-06T14:10:58.893Z,25.32
2019-04-06T14:13:36.486Z,25.02
2019-04-06T14:16:42.350Z,25.11
2019-04-06T14:19:36.023Z,25.00
2019-04-06T14:22:29.192Z,25.31
2019-04-06T14:25:20.853Z,25.34
2019-04-06T14:28:11.513Z,25.16
2019-04-06T14:30:59.925Z,25.53
2019-04-06T14:33:49.328Z,24.94
2019-04-06T14:36:48.669Z,24.64
2019-04-06T14:39:45.170Z,25.92
2019-04-06T14:42:38.429Z,25.93
2019-04-06T14:45:26.161Z,25.22
2019-04-06T14:48:15.621Z,24.59
2019-04-06T14:51:05.916Z,25.12
2019-04-06T14:53:59.062Z,24.33
2019-04-06T14:56:52.495Z,24.77
2019-04-06T14:59:50.163Z,25.36
2019-04-06T15:02:35.388Z,24.96
2019-04-06T15:05:24.248Z,25.13
2019-04-06T15:08:17.912Z,25.40
2019-04-06T15:11:12.220Z,24.18
2019-04-06T15:14:02.043Z,24.14
2019-04-06T15:17:07.695Z,23.54
2019-04-06T15:20:13.027Z,23.42
2019-04-06T15:23:02.348Z,23.03
2019-04-06T15:25:55.881Z,22.51
2019-04-06T15:28:52.982Z,22.88
2019-04-06T15:32:02.115Z,22.83
2019-04-06T15:34:55.384Z,22.57
2019-04-06T15:37:45.965Z,22.51
2019-04-06T15:40:41.396Z,22.27
2019-04-06T15:43:44.475Z,22.45
2019-04-06T15:46:47.402Z,22.24
2019-04-06T15:49:40.754Z,22.14
2019-04-06T15:52:43.074Z,22.21
2019-04-06T15:55:35.311Z,22.11
2019-04-06T15:58:24.364Z,22.00
2019-04-06T16:01:05.387Z,22.06
2019-04-06T16:04:06.566Z,21.86
2019-04-06T16:06:47.302Z,21.57
2019-04-06T16:09:37.526Z,21.67
2019-04-06T16:12:40.390Z,21.52
2019-04-06T16:15:18.697Z,21.49
2019-04-06T16:18:09.082Z,21.22
2019-04-06T16:20:58.296Z,21.41
2019-04-06T16:23:47.304Z,21.57
2019-04-06T16:26:22.420Z,21.50
2019-04-06T16:29:25.069Z,21.37
2019-04-06T16:32:32.925Z,21.33
2019-04-06T16:35:19.717Z,21.28
2019-04-06T16:38:13.185Z,21.19
2019-04-06T16:41:07.578Z,21.12
2019-04-06T16:44:01.502Z,21.15
2019-04-06T16:46:49.782Z,20.92
2019-04-06T16:49:38.791Z,20.91
2019-04-06T16:52:21.892Z,20.74
2019-04-06T16:54:59.983Z,20.58
2019-04-06T16:57:59.611Z,20.70
2019-04-06T17:00:58.930Z,20.57
2019-04-06T17:03:55.604Z,20.66
2019-04-06T17:06:52.202Z,20.65
2019-04-06T17:09:43.515Z,20.29
2019-04-06T17:12:40.399Z,20.15
2019-04-06T17:15:40.111Z,19.93
2019-04-06T17:18:22.233Z,19.92
2019-04-06T17:21:00.056Z,19.86
2019-04-06T17:23:49.239Z,19.96
2019-04-06T17:26:39.521Z,19.81
2019-04-06T17:29:36.506Z,19.74
2019-04-06T17:32:16.063Z,19.46
2019-04-06T17:35:04.962Z,19.44
2019-04-06T17:37:55.997Z,19.28
2019-04-06T17:40:47.205Z,19.17
2019-04-06T17:43:37.443Z,19.11
2019-04-06T17:46:21.077Z,18.97
2019-04-06T17:49:14.385Z,18.69
2019-04-06T17:52:06.818Z,18.65
2019-04-06T17:55:06.237Z,18.48
2019-04-06T17:57:55.109Z,18.32
2019-04-06T18:00:45.463Z,18.21
2019-04-06T18:03:35.691Z,18.13
2019-04-06T18:06:35.105Z,17.87
2019-04-06T18:09:27.363Z,17.87
2019-04-06T18:12:30.065Z,17.80
2019-04-06T18:15:02.046Z,17.52
2019-04-06T18:17:33.765Z,17.52
2019-04-06T18:20:06.009Z,17.44
2019-04-06T18:22:38.170Z,17.29
2019-04-06T18:25:09.845Z,17.15
2019-04-06T18:27:41.199Z,17.13
2019-04-06T18:30:12.923Z,17.06
2019-04-06T18:33:03.046Z,16.90
2019-04-06T18:35:34.088Z,16.80
2019-04-06T18:38:27.553Z,16.64
2019-04-06T18:40:59.309Z,16.55
2019-04-06T18:43:30.671Z,16.34
2019-04-06T18:46:02.475Z,16.34
2019-04-06T18:48:33.874Z,16.24
2019-04-06T18:51:06.539Z,16.17
2019-04-06T18:53:38.830Z,16.17
2019-04-06T18:56:10.814Z,16.08
2019-04-06T18:58:42.472Z,15.96
2019-04-06T19:01:13.846Z,15.87
2019-04-06T19:03:45.549Z,15.83
2019-04-06T19:06:17.870Z,15.72
2019-04-06T19:08:50.201Z,15.68
2019-04-06T19:11:21.913Z,15.58
2019-04-06T19:13:53.804Z,15.54
2019-04-06T19:16:25.635Z,15.43
2019-04-06T19:18:57.055Z,15.34
2019-04-06T19:21:30.399Z,15.34
2019-04-06T19:24:02.245Z,15.20
2019-04-06T19:26:37.065Z,15.18
2019-04-06T19:29:07.339Z,15.09
2019-04-06T19:31:38.891Z,15.09
2019-04-06T19:34:10.294Z,14.97
2019-04-06T19:36:41.656Z,14.91
2019-04-06T19:39:16.074Z,14.71
2019-04-06T19:41:48.276Z,14.71
2019-04-06T19:44:19.610Z,14.73
2019-04-06T19:46:51.587Z,14.69
2019-04-06T19:49:23.092Z,14.63
2019-04-06T19:51:54.746Z,14.57
2019-04-06T19:54:26.861Z,14.51
2019-04-06T19:56:59.231Z,14.43
2019-04-06T19:59:31.576Z,14.39
2019-04-06T20:02:03.061Z,14.36
2019-04-06T20:04:34.546Z,14.29
2019-04-06T20:07:10.960Z,14.24
2019-04-06T20:09:42.175Z,14.23
2019-04-06T20:12:14.135Z,14.19
2019-04-06T20:14:46.040Z,14.12
2019-04-06T20:17:17.879Z,14.10
2019-04-06T20:19:49.856Z,14.06
2019-04-06T20:22:21.687Z,14.00
2019-04-06T20:24:53.272Z,14.02
2019-04-06T20:27:24.614Z,13.89
2019-04-06T20:29:56.393Z,13.82
2019-04-06T20:32:28.293Z,13.77
2019-04-06T20:34:59.600Z,13.66
2019-04-06T20:37:30.893Z,13.61
2019-04-06T20:40:02.781Z,13.53
2019-04-06T20:42:34.894Z,13.48
2019-04-06T20:45:06.706Z,13.40
2019-04-06T20:47:38.610Z,13.35
2019-04-06T20:50:10.470Z,13.33
2019-04-06T20:52:42.619Z,13.31
2019-04-06T20:55:14.689Z,13.23
2019-04-06T20:57:46.155Z,13.14
2019-04-06T21:00:18.762Z,13.08
2019-04-06T21:02:52.271Z,13.04
2019-04-06T21:05:24.861Z,13.01
2019-04-06T21:07:56.662Z,12.94
2019-04-06T21:10:28.399Z,12.90
2019-04-06T21:12:59.915Z,12.79
2019-04-06T21:15:31.911Z,12.75
2019-04-06T21:18:04.388Z,12.69
2019-04-06T21:20:35.761Z,12.66
2019-04-06T21:23:07.340Z,12.65
2019-04-06T21:25:42.947Z,12.63
2019-04-06T21:28:14.598Z,12.63
2019-04-06T21:30:46.665Z,12.45
2019-04-06T21:33:18.658Z,12.45
2019-04-06T21:35:50.171Z,12.42
2019-04-06T21:38:22.809Z,12.35
2019-04-06T21:40:55.191Z,12.32
2019-04-06T21:43:26.552Z,12.23
2019-04-06T21:45:58.424Z,12.22
2019-04-06T21:48:30.191Z,12.14
2019-04-06T21:51:01.904Z,12.06
2019-04-06T21:53:33.207Z,12.02
2019-04-06T21:56:07.367Z,12.00
2019-04-06T21:58:38.129Z,11.94
2019-04-06T22:01:11.931Z,11.92
2019-04-06T22:03:43.927Z,11.87
2019-04-06T22:06:16.166Z,11.84
2019-04-06T22:08:47.553Z,11.81
2019-04-06T22:11:18.941Z,11.75
2019-04-06T22:13:50.305Z,11.72
2019-04-06T22:16:22.317Z,11.76
2019-04-06T22:18:53.707Z,11.72
2019-04-06T22:21:25.123Z,11.68
2019-04-06T22:23:56.532Z,11.64
2019-04-06T22:26:28.417Z,11.57
2019-04-06T22:29:02.764Z,11.57
2019-04-06T22:31:34.244Z,11.60
2019-04-06T22:34:05.790Z,11.46
2019-04-06T22:36:37.201Z,11.38
2019-04-06T22:39:11.134Z,11.34
2019-04-06T22:41:43.337Z,11.22
2019-04-06T22:44:15.376Z,11.15
2019-04-06T22:46:48.559Z,11.09
2019-04-06T22:49:20.419Z,11.06
2019-04-06T22:51:52.798Z,11.08
2019-04-06T22:54:24.657Z,11.04
2019-04-06T22:56:56.532Z,11.06
2019-04-06T22:59:28.008Z,11.00
2019-04-06T23:02:00.130Z,10.89
2019-04-06T23:04:50.652Z,10.90
2019-04-06T23:07:21.971Z,10.88
2019-04-06T23:09:53.348Z,10.81
2019-04-06T23:12:25.508Z,10.73
2019-04-06T23:14:57.759Z,10.67
2019-04-06T23:17:29.228Z,10.68
2019-04-06T23:20:01.189Z,10.65
2019-04-06T23:22:33.150Z,10.59
2019-04-06T23:25:09.402Z,10.52
2019-04-06T23:27:41.227Z,10.52
2019-04-06T23:30:13.149Z,10.43
2019-04-06T23:32:45.595Z,10.38
2019-04-06T23:35:16.983Z,10.33
2019-04-06T23:37:49.213Z,10.30
2019-04-06T23:40:21.478Z,10.25
2019-04-06T23:42:54.940Z,10.14
2019-04-06T23:45:27.514Z,10.10
2019-04-06T23:47:59.437Z,10.08
2019-04-06T23:50:31.445Z,10.04
2019-04-06T23:53:04.245Z,9.96
2019-04-06T23:55:41.432Z,10.02
2019-04-06T23:58:15.263Z,9.99
